createdAt,value
2024-01-16T00:00:41.477Z,98351.22
2024-01-16T00:02:43.993Z,98353.19
2024-01-16T00:04:46.552Z,98357.56
2024-01-16T00:06:49.454Z,98351.78
2024-01-16T00:08:52.150Z,98350.72
2024-01-16T00:10:54.726Z,98345.28
2024-01-16T00:12:57.355Z,98348.63
2024-01-16T00:14:59.878Z,98349.78
2024-01-16T00:17:02.371Z,98348.28
2024-01-16T00:19:05.009Z,98356.03
2024-01-16T00:21:07.561Z,98350.69
2024-01-16T00:23:10.318Z,98350.47
2024-01-16T00:25:13.168Z,98342.22
2024-01-16T00:27:15.715Z,98351.38
2024-01-16T00:29:18.455Z,98347.91
2024-01-16T00:31:21.292Z,98341.25
2024-01-16T00:33:24.124Z,98341.63
2024-01-16T00:35:27.139Z,98339.53
2024-01-16T00:37:29.679Z,98333.69
2024-01-16T00:39:32.236Z,98338.56
2024-01-16T00:41:34.801Z,98335.66
2024-01-16T00:43:37.347Z,98326.25
2024-01-16T00:45:41.824Z,98331.34
2024-01-16T00:47:44.602Z,98328.66
2024-01-16T00:49:47.320Z,98326.56
2024-01-16T00:51:49.883Z,98334.59
2024-01-16T00:53:52.506Z,98334.94
2024-01-16T00:55:58.023Z,98323.44
2024-01-16T00:58:00.528Z,98325.63
2024-01-16T01:00:05.203Z,98315.50
2024-01-16T01:02:07.887Z,98320.59
2024-01-16T01:04:10.555Z,98316.56
2024-01-16T01:06:13.487Z,98323.84
2024-01-16T01:08:16.113Z,98312.28
2024-01-16T01:10:19.213Z,98322.81
2024-01-16T01:12:21.794Z,98311.63
2024-01-16T01:14:24.556Z,98318.59
2024-01-16T01:16:27.084Z,98315.47
2024-01-16T01:18:29.777Z,98321.84
2024-01-16T01:20:32.365Z,98314.41
2024-01-16T01:22:35.170Z,98312.28
2024-01-16T01:24:37.789Z,98294.97
2024-01-16T01:26:40.361Z,98305.44
2024-01-16T01:28:43.024Z,98297.97
2024-01-16T01:30:45.582Z,98302.34
2024-01-16T01:32:48.304Z,98298.28
2024-01-16T01:34:51.162Z,98300.00
2024-01-16T01:36:53.774Z,98308.34
2024-01-16T01:38:56.300Z,98300.59
2024-01-16T01:40:58.948Z,98304.63
2024-01-16T01:43:27.020Z,98296.75
2024-01-16T01:45:29.798Z,98308.91
2024-01-16T01:47:32.632Z,98313.53
2024-01-16T01:49:36.569Z,98318.66
2024-01-16T01:51:39.177Z,98302.03
2024-01-16T01:53:44.227Z,98302.03
2024-01-16T01:55:47.858Z,98298.06
2024-01-16T01:57:50.417Z,98295.88
2024-01-16T01:59:53.073Z,98310.72
2024-01-16T02:01:56.637Z,98294.66
2024-01-16T02:04:00.652Z,98300.59
2024-01-16T02:06:03.530Z,98297.34
2024-01-16T02:08:07.127Z,98303.25
2024-01-16T02:10:10.212Z,98294.44
2024-01-16T02:12:13.128Z,98303.56
2024-01-16T02:14:15.761Z,98300.66
2024-01-16T02:16:23.094Z,98297.19
2024-01-16T02:18:26.382Z,98282.09
2024-01-16T02:20:29.310Z,98300.44
2024-01-16T02:22:33.602Z,98311.34
2024-01-16T02:24:36.179Z,98298.31
2024-01-16T02:26:39.142Z,98306.88
2024-01-16T02:28:41.788Z,98301.53
2024-01-16T02:30:44.441Z,98308.25
2024-01-16T02:32:47.137Z,98289.16
2024-01-16T02:34:49.858Z,98303.47
2024-01-16T02:36:52.478Z,98309.41
2024-01-16T02:38:55.238Z,98315.28
2024-01-16T02:40:57.911Z,98305.16
2024-01-16T02:43:00.420Z,98308.41
2024-01-16T02:45:04.720Z,98315.34
2024-01-16T02:47:08.650Z,98303.63
2024-01-16T02:49:11.696Z,98298.00
2024-01-16T02:51:14.352Z,98302.06
2024-01-16T02:53:17.007Z,98297.53
2024-01-16T02:55:19.656Z,98293.78
2024-01-16T02:57:22.245Z,98293.22
2024-01-16T02:59:24.884Z,98297.78
2024-01-16T03:01:27.477Z,98285.13
2024-01-16T03:03:30.118Z,98284.72
2024-01-16T03:05:32.738Z,98294.94
2024-01-16T03:07:36.133Z,98300.28
2024-01-16T03:09:38.781Z,98289.34
2024-01-16T03:11:41.346Z,98291.69
2024-01-16T03:13:44.620Z,98298.00
2024-01-16T03:15:47.265Z,98289.97
2024-01-16T03:17:50.638Z,98296.38
2024-01-16T03:19:53.239Z,98288.97
2024-01-16T03:21:55.897Z,98299.13
2024-01-16T03:23:58.501Z,98282.81
2024-01-16T03:26:01.040Z,98288.19
2024-01-16T03:28:03.627Z,98282.59
2024-01-16T03:30:07.941Z,98283.63
2024-01-16T03:32:10.672Z,98291.66
2024-01-16T03:34:13.381Z,98301.56
2024-01-16T03:36:16.948Z,98291.59
2024-01-16T03:38:19.543Z,98310.88
2024-01-16T03:40:22.098Z,98307.66
2024-01-16T03:42:25.412Z,98295.06
2024-01-16T03:44:28.066Z,98295.34
2024-01-16T03:46:30.677Z,98297.50
2024-01-16T03:48:33.437Z,98300.41
2024-01-16T03:50:37.465Z,98301.00
2024-01-16T03:52:40.181Z,98308.22
2024-01-16T03:54:42.719Z,98304.47
2024-01-16T03:56:45.357Z,98304.47
2024-01-16T03:58:47.886Z,98298.06
2024-01-16T04:00:52.170Z,98308.78
2024-01-16T04:02:54.791Z,98307.97
2024-01-16T04:04:57.386Z,98306.34
2024-01-16T04:06:59.988Z,98304.97
2024-01-16T04:09:04.058Z,98312.25
2024-01-16T04:11:06.674Z,98308.50
2024-01-16T04:13:09.363Z,98308.03
2024-01-16T04:15:12.114Z,98301.06
2024-01-16T04:17:14.745Z,98301.56
2024-01-16T04:19:17.316Z,98292.22
2024-01-16T04:21:20.872Z,98302.94
2024-01-16T04:23:23.980Z,98301.63
2024-01-16T04:25:26.461Z,98306.91
2024-01-16T04:27:29.009Z,98294.34
2024-01-16T04:29:31.699Z,98315.75
2024-01-16T04:31:40.474Z,98316.00
2024-01-16T04:33:43.315Z,98320.53
2024-01-16T04:35:46.447Z,98323.75
2024-01-16T04:37:49.056Z,98328.88
2024-01-16T04:39:51.621Z,98329.69
2024-01-16T04:41:54.300Z,98331.28
2024-01-16T04:43:56.943Z,98324.84
2024-01-16T04:46:02.784Z,98349.78
2024-01-16T04:48:07.024Z,98335.09
2024-01-16T04:50:10.054Z,98340.22
2024-01-16T04:52:12.664Z,98333.00
2024-01-16T04:54:15.432Z,98328.44
2024-01-16T04:56:18.036Z,98332.19
2024-01-16T04:58:20.598Z,98336.81
2024-01-16T05:00:23.942Z,98340.06
2024-01-16T05:02:26.527Z,98332.50
2024-01-16T05:04:29.062Z,98340.84
2024-01-16T05:06:31.821Z,98339.78
2024-01-16T05:08:34.433Z,98330.72
2024-01-16T05:10:37.071Z,98336.63
2024-01-16T05:12:40.855Z,98327.53
2024-01-16T05:14:43.372Z,98334.53
2024-01-16T05:16:46.053Z,98333.97
2024-01-16T05:18:48.785Z,98341.16
2024-01-16T05:20:51.425Z,98330.16
2024-01-16T05:22:54.514Z,98338.00
2024-01-16T05:24:57.057Z,98331.59
2024-01-16T05:26:59.696Z,98333.69
2024-01-16T05:29:02.335Z,98327.94
2024-01-16T05:31:05.042Z,98327.38
2024-01-16T05:33:08.610Z,98328.97
2024-01-16T05:35:11.664Z,98338.63
2024-01-16T05:37:15.062Z,98318.03
2024-01-16T05:39:18.531Z,98318.59
2024-01-16T05:41:21.344Z,98327.19
2024-01-16T05:43:23.981Z,98323.44
2024-01-16T05:45:26.507Z,98343.56
2024-01-16T05:47:29.407Z,98333.09
2024-01-16T05:49:32.094Z,98349.97
2024-01-16T05:51:34.802Z,98333.59
2024-01-16T05:53:38.561Z,98355.56
2024-01-16T05:55:41.227Z,98340.00
2024-01-16T05:57:44.701Z,98356.38
2024-01-16T05:59:47.319Z,98340.06
2024-01-16T06:01:50.563Z,98344.13
2024-01-16T06:03:53.143Z,98346.78
2024-01-16T06:05:56.009Z,98362.56
2024-01-16T06:07:58.677Z,98337.63
2024-01-16T06:10:01.287Z,98344.91
2024-01-16T06:12:05.504Z,98347.13
2024-01-16T06:14:08.939Z,98332.09
2024-01-16T06:16:11.447Z,98354.16
2024-01-16T06:18:14.492Z,98345.38
2024-01-16T06:20:17.152Z,98333.09
2024-01-16T06:22:19.743Z,98352.44
2024-01-16T06:24:22.537Z,98358.91
2024-01-16T06:26:25.120Z,98353.03
2024-01-16T06:28:27.664Z,98350.94
2024-01-16T06:30:30.437Z,98354.47
2024-01-16T06:32:33.248Z,98357.41
2024-01-16T06:34:36.089Z,98362.00
2024-01-16T06:36:38.667Z,98374.91
2024-01-16T06:38:42.085Z,98368.81
2024-01-16T06:40:44.751Z,98370.47
2024-01-16T06:42:47.291Z,98348.56
2024-01-16T06:44:50.000Z,98352.59
2024-01-16T06:46:52.576Z,98357.50
2024-01-16T06:48:55.193Z,98343.34
2024-01-16T06:50:57.953Z,98350.91
2024-01-16T06:53:00.500Z,98346.06
2024-01-16T06:55:03.083Z,98357.34
2024-01-16T06:57:06.864Z,98356.88
2024-01-16T06:59:12.028Z,98356.34
2024-01-16T07:01:15.541Z,98364.97
2024-01-16T07:03:18.451Z,98364.41
2024-01-16T07:05:21.858Z,98375.16
2024-01-16T07:07:25.793Z,98373.59
2024-01-16T07:09:28.755Z,98368.53
2024-01-16T07:11:32.229Z,98367.72
2024-01-16T07:13:35.765Z,98368.34
2024-01-16T07:15:38.283Z,98372.94
2024-01-16T07:17:41.479Z,98362.53
2024-01-16T07:19:44.351Z,98367.06
2024-01-16T07:21:47.148Z,98356.13
2024-01-16T07:23:49.806Z,98351.88
2024-01-16T07:25:52.435Z,98353.75
2024-01-16T07:27:55.027Z,98359.97
2024-01-16T07:29:58.096Z,98371.25
2024-01-16T07:32:00.773Z,98360.56
2024-01-16T07:34:03.398Z,98367.03
2024-01-16T07:36:06.790Z,98360.31
2024-01-16T07:38:09.809Z,98360.88
2024-01-16T07:40:13.686Z,98358.75
2024-01-16T07:42:16.578Z,98363.84
2024-01-16T07:44:19.141Z,98362.78
2024-01-16T07:46:21.750Z,98360.34
2024-01-16T07:48:24.604Z,98354.97
2024-01-16T07:50:27.331Z,98351.50
2024-01-16T07:52:30.111Z,98353.91
2024-01-16T07:54:32.798Z,98345.03
2024-01-16T07:56:36.590Z,98349.59
2024-01-16T07:58:39.216Z,98331.34
2024-01-16T08:00:42.323Z,98355.22
2024-01-16T08:02:45.443Z,98353.63
2024-01-16T08:04:48.014Z,98357.38
2024-01-16T08:06:50.777Z,98341.22
2024-01-16T08:08:53.451Z,98345.25
2024-01-16T08:10:57.239Z,98340.97
2024-01-16T08:12:59.794Z,98343.66
2024-01-16T08:15:02.422Z,98342.88
2024-01-16T08:17:08.058Z,98331.38
2024-01-16T08:19:10.788Z,98350.44
2024-01-16T08:21:13.504Z,98345.94
2024-01-16T08:23:16.035Z,98332.22
2024-01-16T08:25:18.703Z,98333.28
2024-01-16T08:27:21.325Z,98363.38
2024-01-16T08:29:24.217Z,98340.53
2024-01-16T08:31:27.005Z,98331.66
2024-01-16T08:33:37.106Z,98340.25
2024-01-16T08:35:45.769Z,98354.75
2024-01-16T08:37:50.445Z,98357.47
2024-01-16T08:39:53.467Z,98351.03
2024-01-16T08:41:59.011Z,98349.94
2024-01-16T08:44:01.808Z,98355.31
2024-01-16T08:46:04.970Z,98365.25
2024-01-16T08:48:07.646Z,98353.19
2024-01-16T08:50:10.562Z,98365.78
2024-01-16T08:52:13.225Z,98336.56
2024-01-16T08:54:15.816Z,98343.84
2024-01-16T08:56:19.035Z,98333.63
2024-01-16T08:58:21.986Z,98340.06
2024-01-16T09:00:24.539Z,98338.75
2024-01-16T09:02:30.242Z,98342.25
2024-01-16T09:04:33.037Z,98341.97
2024-01-16T09:06:35.781Z,98330.09
2024-01-16T09:08:38.756Z,98333.94
2024-01-16T09:10:41.358Z,98331.00
2024-01-16T09:12:44.055Z,98331.81
2024-01-16T09:14:46.838Z,98327.00
2024-01-16T09:16:49.622Z,98328.84
2024-01-16T09:18:52.216Z,98327.78
2024-01-16T09:20:56.141Z,98327.00
2024-01-16T09:22:58.947Z,98303.16
2024-01-16T09:25:02.666Z,98308.78
2024-01-16T09:27:08.046Z,98297.50
2024-01-16T09:29:11.590Z,98298.91
2024-01-16T09:31:16.791Z,98291.66
2024-01-16T09:33:19.534Z,98302.41
2024-01-16T09:35:23.454Z,98291.91
2024-01-16T09:37:26.024Z,98291.91
2024-01-16T09:39:28.583Z,98297.81
2024-01-16T09:41:34.028Z,98301.31
2024-01-16T09:43:37.679Z,98293.25
2024-01-16T09:45:40.336Z,98325.47
2024-01-16T09:47:43.976Z,98315.28
2024-01-16T09:49:49.281Z,98305.09
2024-01-16T09:51:51.890Z,98305.91
2024-01-16T09:53:54.515Z,98313.16
2024-01-16T09:56:03.062Z,98312.34
2024-01-16T09:58:08.348Z,98316.41
2024-01-16T10:00:14.884Z,98301.06
2024-01-16T10:02:20.262Z,98309.69
2024-01-16T10:04:23.118Z,98287.09
2024-01-16T10:06:28.491Z,98299.44
2024-01-16T10:08:33.000Z,98287.31
2024-01-16T10:10:46.160Z,98301.31
2024-01-16T10:12:51.925Z,98305.06
2024-01-16T10:14:56.786Z,98304.53
2024-01-16T10:17:06.986Z,98312.84
2024-01-16T10:19:10.172Z,98293.75
2024-01-16T10:21:23.707Z,98298.59
2024-01-16T10:23:31.138Z,98299.41
2024-01-16T10:25:34.421Z,98293.75
2024-01-16T10:27:38.913Z,98294.81
2024-01-16T10:29:56.931Z,98316.03
2024-01-16T10:32:00.633Z,98311.47
2024-01-16T10:34:05.579Z,98285.13
2024-01-16T10:36:19.929Z,98307.66
2024-01-16T10:38:23.793Z,98316.50
2024-01-16T10:40:27.864Z,98315.16
2024-01-16T10:42:31.508Z,98313.63
2024-01-16T10:44:34.095Z,98310.66
2024-01-16T10:46:38.210Z,98310.34
2024-01-16T10:48:43.746Z,98306.84
2024-01-16T10:50:50.126Z,98311.44
2024-01-16T10:52:55.547Z,98311.97
2024-01-16T10:55:01.720Z,98323.47
2024-01-16T10:57:05.698Z,98315.09
2024-01-16T10:59:24.142Z,98308.06
2024-01-16T11:01:27.694Z,98305.06
2024-01-16T11:03:39.636Z,98301.81
2024-01-16T11:05:42.649Z,98302.63
2024-01-16T11:07:46.108Z,98305.66
2024-01-16T11:09:50.241Z,98303.28
2024-01-16T11:11:56.000Z,98301.66
2024-01-16T11:13:59.242Z,98296.84
2024-01-16T11:16:04.639Z,98294.66
2024-01-16T11:18:08.973Z,98291.69
2024-01-16T11:20:36.812Z,98300.56
2024-01-16T11:22:40.702Z,98282.88
2024-01-16T11:24:43.979Z,98292.03
2024-01-16T11:26:46.558Z,98285.34
2024-01-16T11:28:49.658Z,98267.91
2024-01-16T11:30:52.519Z,98265.53
2024-01-16T11:32:55.177Z,98270.06
2024-01-16T11:34:58.098Z,98266.84
2024-01-16T11:37:03.795Z,98261.75
2024-01-16T11:39:07.149Z,98251.22
2024-01-16T11:41:09.680Z,98260.63
2024-01-16T11:43:34.490Z,98260.63
2024-01-16T11:45:37.211Z,98264.09
2024-01-16T11:47:40.903Z,98256.59
2024-01-16T11:49:43.596Z,98252.78
2024-01-16T11:51:46.221Z,98257.56
2024-01-16T11:53:48.828Z,98260.22
2024-01-16T11:55:54.031Z,98243.81
2024-01-16T11:58:08.741Z,98243.53
2024-01-16T12:00:20.967Z,98252.34
2024-01-16T12:02:45.920Z,98249.94
2024-01-16T12:05:00.095Z,98248.59
2024-01-16T12:07:03.306Z,98230.88
2024-01-16T12:09:27.867Z,98215.59
2024-01-16T12:11:40.642Z,98190.91
2024-01-16T12:13:46.040Z,98225.22
2024-01-16T12:15:48.603Z,98252.09
2024-01-16T12:18:02.156Z,98226.34
2024-01-16T12:20:17.884Z,98217.72
2024-01-16T12:22:24.015Z,98227.66
2024-01-16T12:24:26.767Z,98223.84
2024-01-16T12:26:29.561Z,98226.25
2024-01-16T12:28:33.805Z,98218.66
2024-01-16T12:30:37.906Z,98210.84
2024-01-16T12:32:40.686Z,98206.75
2024-01-16T12:34:49.540Z,98200.91
2024-01-16T12:37:06.963Z,98197.97
2024-01-16T12:39:13.851Z,98191.75
2024-01-16T12:41:17.750Z,98199.47
2024-01-16T12:43:22.600Z,98175.56
2024-01-16T12:45:25.199Z,98182.81
2024-01-16T12:47:27.959Z,98186.81
2024-01-16T12:49:31.126Z,98182.22
2024-01-16T12:51:33.989Z,98169.66
2024-01-16T12:53:40.929Z,98173.41
2024-01-16T12:55:43.838Z,98160.84
2024-01-16T12:57:47.280Z,98170.25
2024-01-16T12:59:50.844Z,98158.72
2024-01-16T13:01:53.888Z,98141.03
2024-01-16T13:03:56.892Z,98144.56
2024-01-16T13:06:01.515Z,98133.25
2024-01-16T13:08:05.040Z,98149.31
2024-01-16T13:10:22.709Z,98145.94
2024-01-16T13:12:27.969Z,98138.63
2024-01-16T13:14:31.862Z,98154.44
2024-01-16T13:16:35.657Z,98157.06
2024-01-16T13:18:38.453Z,98151.97
2024-01-16T13:20:41.084Z,98144.97
2024-01-16T13:22:46.624Z,98138.00
2024-01-16T13:24:58.064Z,98134.56
2024-01-16T13:27:10.404Z,98127.00
2024-01-16T13:29:13.156Z,98122.34
2024-01-16T13:31:15.804Z,98127.50
2024-01-16T13:33:18.544Z,98124.66
2024-01-16T13:35:21.245Z,98119.25
2024-01-16T13:37:24.354Z,98119.19
2024-01-16T13:39:27.879Z,98090.44
2024-01-16T13:41:30.563Z,98091.50
2024-01-16T13:43:33.092Z,98091.69
2024-01-16T13:45:39.476Z,98107.53
2024-01-16T13:47:42.724Z,98116.88
2024-01-16T13:49:46.435Z,98105.41
2024-01-16T13:51:49.278Z,98107.53
2024-01-16T13:53:51.956Z,98101.00
2024-01-16T13:55:54.593Z,98099.34
2024-01-16T13:57:59.279Z,98090.16
2024-01-16T14:00:04.322Z,98084.75
2024-01-16T14:02:09.913Z,98093.84
2024-01-16T14:04:12.748Z,98086.50
2024-01-16T14:06:15.552Z,98075.47
2024-01-16T14:08:20.104Z,98075.72
2024-01-16T14:10:24.050Z,98068.97
2024-01-16T14:12:26.594Z,98064.66
2024-01-16T14:14:29.400Z,98063.28
2024-01-16T14:16:41.903Z,98069.53
2024-01-16T14:18:54.309Z,98061.50
2024-01-16T14:20:56.833Z,98053.69
2024-01-16T14:23:01.010Z,98059.56
2024-01-16T14:25:03.572Z,98059.31
2024-01-16T14:27:06.562Z,98040.28
2024-01-16T14:29:10.209Z,98040.53
2024-01-16T14:31:12.759Z,98038.66
2024-01-16T14:33:15.404Z,98037.34
2024-01-16T14:35:18.717Z,98027.66
2024-01-16T14:37:21.756Z,98037.81
2024-01-16T14:39:27.048Z,98019.31
2024-01-16T14:41:30.518Z,98017.44
2024-01-16T14:43:33.053Z,98013.75
2024-01-16T14:45:35.617Z,97996.94
2024-01-16T14:47:38.903Z,98000.00
2024-01-16T14:49:41.509Z,98014.97
2024-01-16T14:51:44.239Z,98014.97
2024-01-16T14:53:46.955Z,97989.75
2024-01-16T14:55:49.833Z,97983.63
2024-01-16T14:57:54.532Z,97990.06
2024-01-16T14:59:57.745Z,98004.25
2024-01-16T15:02:00.385Z,98003.69
2024-01-16T15:04:03.218Z,97985.75
2024-01-16T15:06:06.399Z,98007.22
2024-01-16T15:08:09.422Z,97987.63
2024-01-16T15:10:13.167Z,97992.50
2024-01-16T15:12:15.815Z,98000.25
2024-01-16T15:14:18.801Z,97990.56
2024-01-16T15:16:21.460Z,97997.53
2024-01-16T15:18:24.349Z,97972.91
2024-01-16T15:20:27.028Z,97982.63
2024-01-16T15:22:29.513Z,97969.47
2024-01-16T15:24:32.054Z,97976.66
2024-01-16T15:26:34.649Z,97954.16
2024-01-16T15:28:39.050Z,97958.19
2024-01-16T15:30:44.200Z,97961.19
2024-01-16T15:32:47.034Z,97951.31
2024-01-16T15:34:49.841Z,97954.84
2024-01-16T15:36:52.545Z,97955.47
2024-01-16T15:38:55.128Z,97947.41
2024-01-16T15:40:57.750Z,97933.47
2024-01-16T15:43:00.878Z,97932.16
2024-01-16T15:45:04.056Z,97926.53
2024-01-16T15:47:08.356Z,97940.16
2024-01-16T15:49:11.019Z,97937.72
2024-01-16T15:51:13.671Z,97921.16
2024-01-16T15:53:17.553Z,97910.19
2024-01-16T15:55:20.337Z,97907.00
2024-01-16T15:57:22.887Z,97918.22
2024-01-16T15:59:26.367Z,97902.97
2024-01-16T16:01:29.235Z,97911.03
2024-01-16T16:03:32.055Z,97925.78
2024-01-16T16:05:35.027Z,97908.34
2024-01-16T16:07:37.913Z,97889.59
2024-01-16T16:09:42.150Z,97903.56
2024-01-16T16:11:45.926Z,97886.44
2024-01-16T16:13:48.616Z,97872.75
2024-01-16T16:15:51.457Z,97879.16
2024-01-16T16:17:57.590Z,97865.28
2024-01-16T16:20:01.119Z,97864.44
2024-01-16T16:22:08.250Z,97854.78
2024-01-16T16:24:11.265Z,97864.41
2024-01-16T16:26:14.072Z,97840.84
2024-01-16T16:28:16.680Z,97868.75
2024-01-16T16:30:19.261Z,97863.41
2024-01-16T16:32:21.948Z,97857.47
2024-01-16T16:34:24.749Z,97850.00
2024-01-16T16:36:28.613Z,97850.25
2024-01-16T16:38:31.320Z,97838.22
2024-01-16T16:40:33.945Z,97843.28
2024-01-16T16:42:36.538Z,97849.19
2024-01-16T16:44:39.182Z,97828.31
2024-01-16T16:46:41.715Z,97837.41
2024-01-16T16:48:48.472Z,97818.94
2024-01-16T16:50:51.317Z,97812.75
2024-01-16T16:52:53.837Z,97788.91
2024-01-16T16:54:56.565Z,97791.31
2024-01-16T16:56:59.551Z,97783.28
2024-01-16T16:59:02.328Z,97786.25
2024-01-16T17:01:05.019Z,97789.97
2024-01-16T17:03:08.965Z,97784.13
2024-01-16T17:05:11.853Z,97780.34
2024-01-16T17:07:14.709Z,97766.16
2024-01-16T17:09:21.115Z,97774.44
2024-01-16T17:11:24.619Z,97770.19
2024-01-16T17:13:33.180Z,97772.38
2024-01-16T17:15:35.834Z,97767.56
2024-01-16T17:17:38.600Z,97754.94
2024-01-16T17:19:41.836Z,97764.03
2024-01-16T17:21:44.576Z,97764.28
2024-01-16T17:23:47.448Z,97756.53
2024-01-16T17:25:50.370Z,97761.09
2024-01-16T17:27:52.981Z,97754.66
2024-01-16T17:29:56.049Z,97757.88
2024-01-16T17:31:59.701Z,97754.41
2024-01-16T17:34:02.632Z,97742.88
2024-01-16T17:36:12.467Z,97753.59
2024-01-16T17:38:15.386Z,97731.34
2024-01-16T17:40:17.951Z,97741.81
2024-01-16T17:42:21.035Z,97732.44
2024-01-16T17:44:23.839Z,97735.91
2024-01-16T17:46:26.466Z,97723.84
2024-01-16T17:48:30.721Z,97728.94
2024-01-16T17:50:33.760Z,97730.28
2024-01-16T17:52:36.989Z,97715.81
2024-01-16T17:54:41.046Z,97727.34
2024-01-16T17:56:49.397Z,97727.34
2024-01-16T17:58:52.094Z,97707.50
2024-01-16T18:00:54.797Z,97718.78
2024-01-16T18:02:59.130Z,97725.47
2024-01-16T18:05:03.505Z,97701.88
2024-01-16T18:07:07.284Z,97707.50
2024-01-16T18:09:11.406Z,97698.13
2024-01-16T18:11:14.569Z,97692.22
2024-01-16T18:13:17.819Z,97684.44
2024-01-16T18:15:20.399Z,97675.03
2024-01-16T18:17:23.091Z,97665.63
2024-01-16T18:19:28.804Z,97636.38
2024-01-16T18:21:31.728Z,97649.25
2024-01-16T18:23:36.097Z,97662.41
2024-01-16T18:25:39.176Z,97642.00
2024-01-16T18:27:45.717Z,97643.63
2024-01-16T18:29:48.416Z,97632.88
2024-01-16T18:31:51.535Z,97625.88
2024-01-16T18:33:54.322Z,97616.75
2024-01-16T18:36:01.599Z,97654.53
2024-01-16T18:38:05.069Z,97626.84
2024-01-16T18:40:12.456Z,97653.94
2024-01-16T18:42:15.100Z,97630.34
2024-01-16T18:44:21.267Z,97617.72
2024-01-16T18:46:26.260Z,97642.13
2024-01-16T18:48:32.085Z,97635.97
2024-01-16T18:50:34.795Z,97631.06
2024-01-16T18:52:44.410Z,97632.16
2024-01-16T18:54:47.723Z,97597.19
2024-01-16T18:56:50.558Z,97621.88
2024-01-16T18:58:55.989Z,97601.53
2024-01-16T19:01:00.444Z,97611.06
2024-01-16T19:03:03.134Z,97593.28
2024-01-16T19:05:06.240Z,97578.22
2024-01-16T19:07:15.141Z,97574.47
2024-01-16T19:09:19.169Z,97596.41
2024-01-16T19:11:22.124Z,97587.19
2024-01-16T19:13:25.831Z,97586.81
2024-01-16T19:15:28.995Z,97614.53
2024-01-16T19:17:31.992Z,97593.63
2024-01-16T19:19:35.811Z,97609.75
2024-01-16T19:21:38.971Z,97613.22
2024-01-16T19:23:41.573Z,97611.78
2024-01-16T19:25:44.386Z,97585.97
2024-01-16T19:27:50.369Z,97613.34
2024-01-16T19:29:53.079Z,97642.59
2024-01-16T19:31:55.741Z,97613.28
2024-01-16T19:33:58.363Z,97596.88
2024-01-16T19:36:02.765Z,97606.19
2024-01-16T19:38:05.683Z,97601.09
2024-01-16T19:40:11.953Z,97618.31
2024-01-16T19:42:14.841Z,97602.22
2024-01-16T19:44:18.794Z,97595.56
2024-01-16T19:46:21.711Z,97602.00
2024-01-16T19:48:24.360Z,97607.56
2024-01-16T19:50:29.695Z,97603.78
2024-01-16T19:52:33.285Z,97627.19
2024-01-16T19:54:35.824Z,97616.19
2024-01-16T19:56:41.392Z,97593.28
2024-01-16T19:58:48.674Z,97608.38
2024-01-16T20:00:51.324Z,97588.59
2024-01-16T20:02:56.616Z,97563.41
2024-01-16T20:04:59.425Z,97569.31
2024-01-16T20:07:02.073Z,97570.84
2024-01-16T20:09:06.066Z,97606.84
2024-01-16T20:11:09.270Z,97573.06
2024-01-16T20:13:12.367Z,97570.91
2024-01-16T20:15:17.300Z,97583.50
2024-01-16T20:17:21.006Z,97577.13
2024-01-16T20:19:23.815Z,97555.72
2024-01-16T20:21:27.182Z,97569.84
2024-01-16T20:23:29.803Z,97595.63
2024-01-16T20:25:32.417Z,97589.72
2024-01-16T20:27:35.542Z,97568.16
2024-01-16T20:29:38.174Z,97601.16
2024-01-16T20:31:42.124Z,97588.38
2024-01-16T20:33:50.625Z,97593.56
2024-01-16T20:35:54.089Z,97603.94
2024-01-16T20:37:56.921Z,97590.28
2024-01-16T20:39:59.537Z,97589.88
2024-01-16T20:42:02.685Z,97569.38
2024-01-16T20:44:05.382Z,97569.63
2024-01-16T20:46:09.125Z,97575.81
2024-01-16T20:48:12.576Z,97596.25
2024-01-16T20:50:15.188Z,97586.06
2024-01-16T20:52:18.184Z,97595.19
2024-01-16T20:54:21.340Z,97602.94
2024-01-16T20:56:23.937Z,97590.09
2024-01-16T20:58:26.692Z,97587.34
2024-01-16T21:00:35.308Z,97599.88
2024-01-16T21:02:41.215Z,97585.66
2024-01-16T21:04:46.452Z,97592.19
2024-01-16T21:06:49.878Z,97551.56
2024-01-16T21:08:52.621Z,97587.59
2024-01-16T21:10:55.194Z,97581.09
2024-01-16T21:12:57.810Z,97577.59
2024-01-16T21:15:00.877Z,97594.63
2024-01-16T21:17:08.693Z,97567.78
2024-01-16T21:19:14.670Z,97584.41
2024-01-16T21:21:17.328Z,97566.16
2024-01-16T21:23:20.113Z,97550.81
2024-01-16T21:25:23.914Z,97581.81
2024-01-16T21:27:26.507Z,97556.63
2024-01-16T21:29:29.092Z,97539.19
2024-01-16T21:31:31.784Z,97573.69
2024-01-16T21:33:34.896Z,97582.66
2024-01-16T21:35:37.661Z,97583.19
2024-01-16T21:37:40.976Z,97556.00
2024-01-16T21:39:44.160Z,97549.56
2024-01-16T21:41:47.741Z,97565.16
2024-01-16T21:43:50.411Z,97585.69
2024-01-16T21:45:53.006Z,97558.84
2024-01-16T21:47:55.727Z,97595.56
2024-01-16T21:50:00.108Z,97585.34
2024-01-16T21:52:04.981Z,97581.34
2024-01-16T21:54:07.699Z,97576.84
2024-01-16T21:56:10.271Z,97591.66
2024-01-16T21:58:12.963Z,97572.09
2024-01-16T22:00:16.034Z,97548.72
2024-01-16T22:02:18.799Z,97545.03
2024-01-16T22:04:21.551Z,97545.28
2024-01-16T22:06:24.400Z,97556.50
2024-01-16T22:08:30.260Z,97523.44
2024-01-16T22:10:32.992Z,97527.53
2024-01-16T22:12:35.588Z,97557.97
2024-01-16T22:14:39.164Z,97542.38
2024-01-16T22:16:41.826Z,97541.06
2024-01-16T22:18:47.573Z,97503.63
2024-01-16T22:20:51.988Z,97546.97
2024-01-16T22:22:54.485Z,97484.72
2024-01-16T22:24:57.113Z,97515.38
2024-01-16T22:26:59.732Z,97499.97
2024-01-16T22:29:02.360Z,97487.09
2024-01-16T22:31:05.900Z,97496.34
2024-01-16T22:33:08.663Z,97511.41
2024-01-16T22:35:12.073Z,97499.91
2024-01-16T22:37:15.729Z,97518.88
2024-01-16T22:39:19.055Z,97527.19
2024-01-16T22:41:21.837Z,97503.28
2024-01-16T22:43:24.483Z,97489.38
2024-01-16T22:45:27.072Z,97512.09
2024-01-16T22:47:29.631Z,97518.28
2024-01-16T22:49:32.274Z,97543.59
2024-01-16T22:51:36.995Z,97527.50
2024-01-16T22:53:39.724Z,97537.69
2024-01-16T22:55:44.245Z,97506.41
2024-01-16T22:57:47.600Z,97504.81
2024-01-16T22:59:50.136Z,97521.47
2024-01-16T23:01:52.727Z,97545.63
2024-01-16T23:03:57.863Z,97515.28
2024-01-16T23:06:01.931Z,97522.56
2024-01-16T23:08:04.917Z,97532.78
2024-01-16T23:10:09.287Z,97481.50
2024-01-16T23:12:13.326Z,97559.69
2024-01-16T23:14:15.960Z,97533.84
2024-01-16T23:16:18.919Z,97545.91
2024-01-16T23:18:21.637Z,97526.19
2024-01-16T23:20:24.565Z,97510.63
2024-01-16T23:22:27.568Z,97513.31
2024-01-16T23:24:31.884Z,97499.63
2024-01-16T23:26:36.039Z,97490.03
2024-01-16T23:28:39.382Z,97507.03
2024-01-16T23:30:41.923Z,97503.00
2024-01-16T23:32:44.490Z,97503.97
2024-01-16T23:34:47.577Z,97504.22
2024-01-16T23:36:50.084Z,97463.38
2024-01-16T23:38:53.930Z,97505.56
2024-01-16T23:40:57.627Z,97508.25
2024-01-16T23:43:01.789Z,97492.94
2024-01-16T23:45:06.480Z,97519.78
2024-01-16T23:47:10.479Z,97510.56
2024-01-16T23:49:15.752Z,97508.94
2024-01-16T23:51:18.358Z,97514.94
2024-01-16T23:53:20.914Z,97506.38
2024-01-16T23:55:24.316Z,97507.16
2024-01-16T23:57:26.922Z,97508.22
2024-01-16T23:59:29.919Z,97486.00
